PWSweather.com
Personal Weather Stations
Station Observations
IONTARIO88
Lincoln, ON L0R

Lincoln, ON L0R

Lat: 43.1763563, Lon: -79.4719525

Elevation: 297

Station Type: Davis Vantage Pro 2 Plus

http://www.beamsvillewx.ca

High Low Average
Temperature 86.5°F30.3°C 69.6°F20.9°C 78.2°F25.7°C
Dew Point 65.7°F18.7°C 55.8°F13.2°C 60.3°F15.7°C
Winds 17.3 mph 27.8 kmh Calm Calm 7.0 mph SW11.3 kmh SW
Wind Gusts 29.9 mph48.1 kmh 1.2 mph1.9 kmh 13.0 mph20.9 kmh
Humidity 64% 41% 55%
Pressure 29.78 in1008.5 mb 29.65 in1004.1 mb -
Precipitation 0.00 in0.0 mm - -
Hour Temp Dew Point Humidity Winds Wind Gusts Pressure Precip Precip Rate Daily Precip Total
12:00 AM 70.6°F21.4°C 58.3°F14.6°C 65% 6.9 mph SW11.1 kmh SW 11.5 mph18.5 kmh 29.75 in1007.5 mb - 0.00 in0.0 mm 0.00 in0.0 mm
12:10 AM 70.5°F21.4°C 58.2°F14.6°C 65% 4.6 mph SW7.4 kmh SW 8.1 mph13.0 kmh 29.75 in1007.5 mb - 0.00 in0.0 mm 0.00 in0.0 mm
12:20 AM 70.6°F21.4°C 58.7°F14.8°C 66% 4.6 mph SW7.4 kmh SW 11.5 mph18.5 kmh 29.74 in1007.1 mb - 0.00 in0.0 mm 0.00 in0.0 mm
12:30 AM 71.2°F21.8°C 58.8°F14.9°C 65% 5.8 mph SSW9.3 kmh SSW 11.5 mph18.5 kmh 29.75 in1007.5 mb - 0.00 in0.0 mm 0.00 in0.0 mm
12:40 AM 71.9°F22.2°C 59.1°F15.1°C 64% 4.6 mph SW7.4 kmh SW 11.5 mph18.5 kmh 29.75 in1007.5 mb - 0.00 in0.0 mm 0.00 in0.0 mm
12:50 AM 72.1°F22.3°C 59.2°F15.1°C 64% 4.6 mph SW7.4 kmh SW 11.5 mph18.5 kmh 29.75 in1007.5 mb - 0.00 in0.0 mm 0.00 in0.0 mm
01:00 AM 72.3°F22.4°C 59.5°F15.3°C 64% 4.6 mph WSW7.4 kmh WSW 11.5 mph18.5 kmh 29.76 in1007.8 mb - 0.00 in0.0 mm 0.00 in0.0 mm
01:10 AM 73.0°F22.8°C 59.7°F15.4°C 63% 4.6 mph SW7.4 kmh SW 10.4 mph16.7 kmh 29.76 in1007.8 mb - 0.00 in0.0 mm 0.00 in0.0 mm
01:20 AM 73.8°F23.2°C 60.0°F15.6°C 62% 8.1 mph SW13.0 kmh SW 13.8 mph22.2 kmh 29.76 in1007.8 mb - 0.00 in0.0 mm 0.00 in0.0 mm
01:30 AM 74.3°F23.5°C 60.0°F15.6°C 61% 6.9 mph SW11.1 kmh SW 11.5 mph18.5 kmh 29.76 in1007.8 mb - 0.00 in0.0 mm 0.00 in0.0 mm
01:40 AM 74.3°F23.5°C 60.0°F15.6°C 61% 6.9 mph SW11.1 kmh SW 8.1 mph13.0 kmh 29.75 in1007.5 mb - 0.00 in0.0 mm 0.00 in0.0 mm
01:50 AM 74.2°F23.4°C 59.9°F15.5°C 61% 6.9 mph SW11.1 kmh SW 11.5 mph18.5 kmh 29.76 in1007.8 mb - 0.00 in0.0 mm 0.00 in0.0 mm
02:00 AM 74.4°F23.6°C 59.6°F15.3°C 60% 6.9 mph SW11.1 kmh SW 9.2 mph14.8 kmh 29.77 in1008.1 mb - 0.00 in0.0 mm 0.00 in0.0 mm
02:10 AM 74.4°F23.6°C 59.6°F15.3°C 60% 5.8 mph SW9.3 kmh SW 11.5 mph18.5 kmh 29.77 in1008.1 mb - 0.00 in0.0 mm 0.00 in0.0 mm
02:20 AM 74.4°F23.6°C 59.6°F15.3°C 60% 5.8 mph SW9.3 kmh SW 11.5 mph18.5 kmh 29.77 in1008.1 mb - 0.00 in0.0 mm 0.00 in0.0 mm
02:30 AM 74.3°F23.5°C 59.5°F15.3°C 60% 5.8 mph SW9.3 kmh SW 8.1 mph13.0 kmh 29.76 in1007.8 mb - 0.00 in0.0 mm 0.00 in0.0 mm
02:40 AM 74.1°F23.4°C 59.3°F15.2°C 60% 8.1 mph SW13.0 kmh SW 11.5 mph18.5 kmh 29.77 in1008.1 mb - 0.00 in0.0 mm 0.00 in0.0 mm
02:50 AM 73.7°F23.2°C 59.4°F15.2°C 61% 6.9 mph SW11.1 kmh SW 11.5 mph18.5 kmh 29.77 in1008.1 mb - 0.00 in0.0 mm 0.00 in0.0 mm
03:00 AM 73.2°F22.9°C 58.9°F14.9°C 61% 5.8 mph SW9.3 kmh SW 11.5 mph18.5 kmh 29.77 in1008.1 mb - 0.00 in0.0 mm 0.00 in0.0 mm
03:10 AM 72.8°F22.7°C 59.5°F15.3°C 63% 4.6 mph SW7.4 kmh SW 8.1 mph13.0 kmh 29.76 in1007.8 mb - 0.00 in0.0 mm 0.00 in0.0 mm
03:20 AM 72.7°F22.6°C 59.4°F15.2°C 63% 2.3 mph SW3.7 kmh SW 11.5 mph18.5 kmh 29.76 in1007.8 mb - 0.00 in0.0 mm 0.00 in0.0 mm
03:30 AM 72.7°F22.6°C 59.4°F15.2°C 63% 4.6 mph SW7.4 kmh SW 11.5 mph18.5 kmh 29.76 in1007.8 mb - 0.00 in0.0 mm 0.00 in0.0 mm
03:40 AM 72.8°F22.7°C 59.0°F15.0°C 62% 5.8 mph SW9.3 kmh SW 6.9 mph11.1 kmh 29.76 in1007.8 mb - 0.00 in0.0 mm 0.00 in0.0 mm
03:50 AM 72.7°F22.6°C 59.4°F15.2°C 63% 4.6 mph SW7.4 kmh SW 6.9 mph11.1 kmh 29.76 in1007.8 mb - 0.00 in0.0 mm 0.00 in0.0 mm
04:00 AM 72.6°F22.6°C 59.2°F15.1°C 63% 5.8 mph SSW9.3 kmh SSW 11.5 mph18.5 kmh 29.76 in1007.8 mb - 0.00 in0.0 mm 0.00 in0.0 mm
04:10 AM 72.5°F22.5°C 59.2°F15.1°C 63% 4.6 mph SW7.4 kmh SW 8.1 mph13.0 kmh 29.77 in1008.1 mb - 0.00 in0.0 mm 0.00 in0.0 mm
04:20 AM 72.2°F22.3°C 58.9°F14.9°C 63% 3.5 mph SW5.6 kmh SW 5.8 mph9.3 kmh 29.77 in1008.1 mb - 0.00 in0.0 mm 0.00 in0.0 mm
04:30 AM 71.9°F22.2°C 58.6°F14.8°C 63% 4.6 mph SW7.4 kmh SW 5.8 mph9.3 kmh 29.77 in1008.1 mb - 0.00 in0.0 mm 0.00 in0.0 mm
04:40 AM 71.7°F22.1°C 58.4°F14.7°C 63% 3.5 mph SW5.6 kmh SW 4.6 mph7.4 kmh 29.77 in1008.1 mb - 0.00 in0.0 mm 0.00 in0.0 mm
04:50 AM 71.5°F21.9°C 58.2°F14.6°C 63% 4.6 mph SSW7.4 kmh SSW 6.9 mph11.1 kmh 29.77 in1008.1 mb - 0.00 in0.0 mm 0.00 in0.0 mm
05:00 AM 71.4°F21.9°C 58.1°F14.5°C 63% 3.5 mph SSW5.6 kmh SSW 9.2 mph14.8 kmh 29.77 in1008.1 mb - 0.00 in0.0 mm 0.00 in0.0 mm
05:10 AM 71.0°F21.7°C 57.8°F14.3°C 63% 4.6 mph SSW7.4 kmh SSW 5.8 mph9.3 kmh 29.77 in1008.1 mb - 0.00 in0.0 mm 0.00 in0.0 mm
05:20 AM 70.7°F21.5°C 57.5°F14.2°C 63% 3.5 mph SW5.6 kmh SW 5.8 mph9.3 kmh 29.76 in1007.8 mb - 0.00 in0.0 mm 0.00 in0.0 mm
05:30 AM 70.5°F21.4°C 57.3°F14.1°C 63% 4.6 mph SSW7.4 kmh SSW 11.5 mph18.5 kmh 29.77 in1008.1 mb - 0.00 in0.0 mm 0.00 in0.0 mm
05:40 AM 70.2°F21.2°C 57.4°F14.1°C 64% 8.1 mph SSW13.0 kmh SSW 12.7 mph20.4 kmh 29.77 in1008.1 mb - 0.00 in0.0 mm 0.00 in0.0 mm
05:50 AM 70.0°F21.1°C 57.3°F14.1°C 64% 3.5 mph SW5.6 kmh SW 8.1 mph13.0 kmh 29.77 in1008.1 mb - 0.00 in0.0 mm 0.00 in0.0 mm
06:00 AM 69.9°F21.1°C 57.2°F14.0°C 64% 4.6 mph SW7.4 kmh SW 10.4 mph16.7 kmh 29.77 in1008.1 mb - 0.00 in0.0 mm 0.00 in0.0 mm
06:10 AM 70.0°F21.1°C 57.3°F14.1°C 64% 4.6 mph SW7.4 kmh SW 6.9 mph11.1 kmh 29.77 in1008.1 mb - 0.00 in0.0 mm 0.00 in0.0 mm
06:20 AM 70.1°F21.2°C 57.4°F14.1°C 64% 3.5 mph SW5.6 kmh SW 15.0 mph24.1 kmh 29.77 in1008.1 mb - 0.00 in0.0 mm 0.00 in0.0 mm
06:30 AM 70.2°F21.2°C 57.4°F14.1°C 64% 5.8 mph SSW9.3 kmh SSW 8.1 mph13.0 kmh 29.76 in1007.8 mb - 0.00 in0.0 mm 0.00 in0.0 mm
06:40 AM 70.2°F21.2°C 57.4°F14.1°C 64% 2.3 mph SW3.7 kmh SW 16.1 mph25.9 kmh 29.77 in1008.1 mb - 0.00 in0.0 mm 0.00 in0.0 mm
06:50 AM 70.4°F21.3°C 57.6°F14.2°C 64% 4.6 mph SW7.4 kmh SW 11.5 mph18.5 kmh 29.77 in1008.1 mb - 0.00 in0.0 mm 0.00 in0.0 mm
07:00 AM 70.8°F21.6°C 58.0°F14.4°C 64% 4.6 mph SW7.4 kmh SW 10.4 mph16.7 kmh 29.77 in1008.1 mb - 0.00 in0.0 mm 0.00 in0.0 mm
07:10 AM 71.2°F21.8°C 58.4°F14.7°C 64% 5.8 mph SW9.3 kmh SW 9.2 mph14.8 kmh 29.76 in1007.8 mb - 0.00 in0.0 mm 0.00 in0.0 mm
07:20 AM 71.5°F21.9°C 58.3°F14.6°C 63% 4.6 mph SSW7.4 kmh SSW 11.5 mph18.5 kmh 29.76 in1007.8 mb - 0.00 in0.0 mm 0.00 in0.0 mm
07:30 AM 72.1°F22.3°C 58.8°F14.9°C 63% 5.8 mph SW9.3 kmh SW 5.8 mph9.3 kmh 29.76 in1007.8 mb - 0.00 in0.0 mm 0.00 in0.0 mm
07:40 AM 72.9°F22.7°C 59.1°F15.1°C 62% 5.8 mph SW9.3 kmh SW 11.5 mph18.5 kmh 29.77 in1008.1 mb - 0.00 in0.0 mm 0.00 in0.0 mm
07:50 AM 73.2°F22.9°C 58.9°F14.9°C 61% 6.9 mph SW11.1 kmh SW 11.5 mph18.5 kmh 29.76 in1007.8 mb - 0.00 in0.0 mm 0.00 in0.0 mm
08:00 AM 73.3°F22.9°C 59.0°F15.0°C 61% 8.1 mph SW13.0 kmh SW 11.5 mph18.5 kmh 29.76 in1007.8 mb - 0.00 in0.0 mm 0.00 in0.0 mm
08:10 AM 73.5°F23.1°C 59.2°F15.1°C 61% 6.9 mph SW11.1 kmh SW 11.5 mph18.5 kmh 29.77 in1008.1 mb - 0.00 in0.0 mm 0.00 in0.0 mm
08:20 AM 73.8°F23.2°C 59.5°F15.3°C 61% 9.2 mph SW14.8 kmh SW 12.7 mph20.4 kmh 29.76 in1007.8 mb - 0.00 in0.0 mm 0.00 in0.0 mm
08:30 AM 74.0°F23.3°C 59.7°F15.4°C 61% 6.9 mph SW11.1 kmh SW 12.7 mph20.4 kmh 29.76 in1007.8 mb - 0.00 in0.0 mm 0.00 in0.0 mm
08:40 AM 73.9°F23.3°C 59.6°F15.3°C 61% 9.2 mph SW14.8 kmh SW 16.1 mph25.9 kmh 29.76 in1007.8 mb - 0.00 in0.0 mm 0.00 in0.0 mm
08:50 AM 73.7°F23.2°C 59.9°F15.5°C 62% 3.5 mph WSW5.6 kmh WSW 8.1 mph13.0 kmh 29.76 in1007.8 mb - 0.00 in0.0 mm 0.00 in0.0 mm
09:00 AM 74.5°F23.6°C 60.1°F15.6°C 61% 5.8 mph SSW9.3 kmh SSW 13.8 mph22.2 kmh 29.76 in1007.8 mb - 0.00 in0.0 mm 0.00 in0.0 mm
09:10 AM 75.6°F24.2°C 60.7°F15.9°C 60% 6.9 mph SW11.1 kmh SW 15.0 mph24.1 kmh 29.75 in1007.5 mb - 0.00 in0.0 mm 0.00 in0.0 mm
09:20 AM 76.6°F24.8°C 61.2°F16.2°C 59% 8.1 mph SW13.0 kmh SW 19.6 mph31.5 kmh 29.75 in1007.5 mb - 0.00 in0.0 mm 0.00 in0.0 mm
09:30 AM 77.4°F25.2°C 61.5°F16.4°C 58% 9.2 mph SW14.8 kmh SW 11.5 mph18.5 kmh 29.75 in1007.5 mb - 0.00 in0.0 mm 0.00 in0.0 mm
09:40 AM 78.2°F25.7°C 61.2°F16.2°C 56% 11.5 mph WSW18.5 kmh WSW 13.8 mph22.2 kmh 29.75 in1007.5 mb - 0.00 in0.0 mm 0.00 in0.0 mm
09:50 AM 78.8°F26.0°C 61.3°F16.3°C 55% 9.2 mph SW14.8 kmh SW 19.6 mph31.5 kmh 29.75 in1007.5 mb - 0.00 in0.0 mm 0.00 in0.0 mm
10:00 AM 78.9°F26.1°C 61.4°F16.3°C 55% 6.9 mph WSW11.1 kmh WSW 16.1 mph25.9 kmh 29.75 in1007.5 mb - 0.00 in0.0 mm 0.00 in0.0 mm
10:10 AM 79.1°F26.2°C 62.1°F16.7°C 56% 12.7 mph SW20.4 kmh SW 20.7 mph33.3 kmh 29.75 in1007.5 mb - 0.00 in0.0 mm 0.00 in0.0 mm
10:20 AM 79.7°F26.5°C 62.6°F17.0°C 56% 5.8 mph SW9.3 kmh SW 6.9 mph11.1 kmh 29.75 in1007.5 mb - 0.00 in0.0 mm 0.00 in0.0 mm
10:30 AM 80.2°F26.8°C 62.6°F17.0°C 55% 9.2 mph SW14.8 kmh SW 19.6 mph31.5 kmh 29.75 in1007.5 mb - 0.00 in0.0 mm 0.00 in0.0 mm
10:40 AM 80.7°F27.1°C 62.5°F16.9°C 54% 6.9 mph SW11.1 kmh SW 15.0 mph24.1 kmh 29.75 in1007.5 mb - 0.00 in0.0 mm 0.00 in0.0 mm
10:50 AM 81.3°F27.4°C 62.5°F16.9°C 53% 10.4 mph SW16.7 kmh SW 19.6 mph31.5 kmh 29.74 in1007.1 mb - 0.00 in0.0 mm 0.00 in0.0 mm
11:00 AM 81.5°F27.5°C 62.7°F17.1°C 53% 10.4 mph SW16.7 kmh SW 12.7 mph20.4 kmh 29.75 in1007.5 mb - 0.00 in0.0 mm 0.00 in0.0 mm
11:10 AM 81.6°F27.6°C 63.9°F17.7°C 55% 3.5 mph SW5.6 kmh SW 10.4 mph16.7 kmh 29.74 in1007.1 mb - 0.00 in0.0 mm 0.00 in0.0 mm
11:20 AM 82.4°F28.0°C 64.1°F17.8°C 54% 10.4 mph SW16.7 kmh SW 19.6 mph31.5 kmh 29.73 in1006.8 mb - 0.00 in0.0 mm 0.00 in0.0 mm
11:30 AM 82.5°F28.1°C 63.6°F17.6°C 53% 11.5 mph SW18.5 kmh SW 20.7 mph33.3 kmh 29.74 in1007.1 mb - 0.00 in0.0 mm 0.00 in0.0 mm
11:40 AM 82.9°F28.3°C 64.0°F17.8°C 53% 9.2 mph SW14.8 kmh SW 16.1 mph25.9 kmh 29.74 in1007.1 mb - 0.00 in0.0 mm 0.00 in0.0 mm
11:50 AM 83.2°F28.4°C 64.3°F17.9°C 53% 5.8 mph WSW9.3 kmh WSW 11.5 mph18.5 kmh 29.73 in1006.8 mb - 0.00 in0.0 mm 0.00 in0.0 mm
12:00 PM 84.0°F28.9°C 64.5°F18.1°C 52% 8.1 mph SW13.0 kmh SW 19.6 mph31.5 kmh 29.73 in1006.8 mb - 0.00 in0.0 mm 0.00 in0.0 mm
12:10 PM 84.3°F29.1°C 64.8°F18.2°C 52% 9.2 mph SW14.8 kmh SW 13.8 mph22.2 kmh 29.73 in1006.8 mb - 0.00 in0.0 mm 0.00 in0.0 mm
12:20 PM 84.4°F29.1°C 64.9°F18.3°C 52% 9.2 mph SSW14.8 kmh SSW 15.0 mph24.1 kmh 29.73 in1006.8 mb - 0.00 in0.0 mm 0.00 in0.0 mm
12:30 PM 84.2°F29.0°C 64.7°F18.2°C 52% 12.7 mph SW20.4 kmh SW 17.3 mph27.8 kmh 29.73 in1006.8 mb - 0.00 in0.0 mm 0.00 in0.0 mm
12:40 PM 84.4°F29.1°C 64.9°F18.3°C 52% 6.9 mph SW11.1 kmh SW 11.5 mph18.5 kmh 29.73 in1006.8 mb - 0.00 in0.0 mm 0.00 in0.0 mm
12:50 PM 84.9°F29.4°C 65.3°F18.5°C 52% 12.7 mph SW20.4 kmh SW 18.4 mph29.6 kmh 29.74 in1007.1 mb - 0.00 in0.0 mm 0.00 in0.0 mm
01:00 PM 84.8°F29.3°C 64.7°F18.2°C 51% 8.1 mph SSW13.0 kmh SSW 18.4 mph29.6 kmh 29.73 in1006.8 mb - 0.00 in0.0 mm 0.00 in0.0 mm
01:10 PM 85.3°F29.6°C 65.7°F18.7°C 52% 9.2 mph SW14.8 kmh SW 19.6 mph31.5 kmh 29.73 in1006.8 mb - 0.00 in0.0 mm 0.00 in0.0 mm
01:20 PM 85.1°F29.5°C 64.4°F18.0°C 50% 11.5 mph WSW18.5 kmh WSW 11.5 mph18.5 kmh 29.73 in1006.8 mb - 0.00 in0.0 mm 0.00 in0.0 mm
01:30 PM 85.1°F29.5°C 64.4°F18.0°C 50% 9.2 mph SW14.8 kmh SW 19.6 mph31.5 kmh 29.73 in1006.8 mb - 0.00 in0.0 mm 0.00 in0.0 mm
01:40 PM 85.2°F29.6°C 64.4°F18.0°C 50% 10.4 mph SW16.7 kmh SW 19.6 mph31.5 kmh 29.72 in1006.4 mb - 0.00 in0.0 mm 0.00 in0.0 mm
01:50 PM 85.3°F29.6°C 64.0°F17.8°C 49% 12.7 mph SW20.4 kmh SW 24.2 mph38.9 kmh 29.72 in1006.4 mb - 0.00 in0.0 mm 0.00 in0.0 mm
02:00 PM 85.5°F29.7°C 64.2°F17.9°C 49% 12.7 mph SW20.4 kmh SW 20.7 mph33.3 kmh 29.72 in1006.4 mb - 0.00 in0.0 mm 0.00 in0.0 mm
02:10 PM 85.7°F29.8°C 63.7°F17.6°C 48% 8.1 mph SW13.0 kmh SW 15.0 mph24.1 kmh 29.71 in1006.1 mb - 0.00 in0.0 mm 0.00 in0.0 mm
02:20 PM 85.5°F29.7°C 63.6°F17.6°C 48% 10.4 mph SW16.7 kmh SW 20.7 mph33.3 kmh 29.71 in1006.1 mb - 0.00 in0.0 mm 0.00 in0.0 mm
02:30 PM 86.0°F30.0°C 64.0°F17.8°C 48% 10.4 mph SW16.7 kmh SW 21.9 mph35.2 kmh 29.71 in1006.1 mb - 0.00 in0.0 mm 0.00 in0.0 mm
02:40 PM 85.7°F29.8°C 63.1°F17.3°C 47% 10.4 mph SW16.7 kmh SW 19.6 mph31.5 kmh 29.70 in1005.8 mb - 0.00 in0.0 mm 0.00 in0.0 mm
02:50 PM 86.0°F30.0°C 63.5°F17.5°C 47% 9.2 mph SW14.8 kmh SW 19.6 mph31.5 kmh 29.70 in1005.8 mb - 0.00 in0.0 mm 0.00 in0.0 mm
03:00 PM 86.4°F30.2°C 61.9°F16.6°C 44% 12.7 mph SW20.4 kmh SW 19.6 mph31.5 kmh 29.70 in1005.8 mb - 0.00 in0.0 mm 0.00 in0.0 mm
03:10 PM 86.5°F30.3°C 60.0°F15.6°C 41% 12.7 mph WSW20.4 kmh WSW 19.6 mph31.5 kmh 29.70 in1005.8 mb - 0.00 in0.0 mm 0.00 in0.0 mm
03:20 PM 86.4°F30.2°C 60.6°F15.9°C 42% 13.8 mph SW22.2 kmh SW 24.2 mph38.9 kmh 29.69 in1005.4 mb - 0.00 in0.0 mm 0.00 in0.0 mm
03:30 PM 86.2°F30.1°C 62.4°F16.9°C 45% 13.8 mph SW22.2 kmh SW 27.6 mph44.4 kmh 29.70 in1005.8 mb - 0.00 in0.0 mm 0.00 in0.0 mm
03:40 PM 86.0°F30.0°C 62.8°F17.1°C 46% 8.1 mph SW13.0 kmh SW 16.1 mph25.9 kmh 29.69 in1005.4 mb - 0.00 in0.0 mm 0.00 in0.0 mm
03:50 PM 85.9°F29.9°C 63.3°F17.4°C 47% 11.5 mph SW18.5 kmh SW 19.6 mph31.5 kmh 29.69 in1005.4 mb - 0.00 in0.0 mm 0.00 in0.0 mm
04:00 PM 86.0°F30.0°C 63.4°F17.4°C 47% 9.2 mph SW14.8 kmh SW 19.6 mph31.5 kmh 29.69 in1005.4 mb - 0.00 in0.0 mm 0.00 in0.0 mm
04:10 PM 85.9°F29.9°C 62.7°F17.1°C 46% 9.2 mph SW14.8 kmh SW 23.0 mph37.0 kmh 29.68 in1005.1 mb - 0.00 in0.0 mm 0.00 in0.0 mm
04:20 PM 86.0°F30.0°C 62.2°F16.8°C 45% 12.7 mph SW20.4 kmh SW 17.3 mph27.8 kmh 29.68 in1005.1 mb - 0.00 in0.0 mm 0.00 in0.0 mm
04:30 PM 85.8°F29.9°C 62.6°F17.0°C 46% 13.8 mph SW22.2 kmh SW 24.2 mph38.9 kmh 29.68 in1005.1 mb - 0.00 in0.0 mm 0.00 in0.0 mm
04:40 PM 85.8°F29.9°C 62.6°F17.0°C 46% 17.3 mph SW27.8 kmh SW 27.6 mph44.4 kmh 29.68 in1005.1 mb - 0.00 in0.0 mm 0.00 in0.0 mm
04:50 PM 85.9°F29.9°C 62.1°F16.7°C 45% 12.7 mph SW20.4 kmh SW 25.3 mph40.7 kmh 29.68 in1005.1 mb - 0.00 in0.0 mm 0.00 in0.0 mm
05:00 PM 85.6°F29.8°C 62.5°F16.9°C 46% 10.4 mph SW16.7 kmh SW 21.9 mph35.2 kmh 29.68 in1005.1 mb - 0.00 in0.0 mm 0.00 in0.0 mm
05:10 PM 85.5°F29.7°C 62.4°F16.9°C 46% 12.7 mph WSW20.4 kmh WSW 21.9 mph35.2 kmh 29.68 in1005.1 mb - 0.00 in0.0 mm 0.00 in0.0 mm
05:20 PM 85.4°F29.7°C 62.9°F17.2°C 47% 15.0 mph SW24.1 kmh SW 26.5 mph42.6 kmh 29.68 in1005.1 mb - 0.00 in0.0 mm 0.00 in0.0 mm
05:30 PM 85.3°F29.6°C 62.2°F16.8°C 46% 17.3 mph WSW27.8 kmh WSW 26.5 mph42.6 kmh 29.68 in1005.1 mb - 0.00 in0.0 mm 0.00 in0.0 mm
05:40 PM 85.1°F29.5°C 62.6°F17.0°C 47% 10.4 mph SW16.7 kmh SW 19.6 mph31.5 kmh 29.68 in1005.1 mb - 0.00 in0.0 mm 0.00 in0.0 mm
05:50 PM 85.2°F29.6°C 62.7°F17.1°C 47% 10.4 mph SW16.7 kmh SW 17.3 mph27.8 kmh 29.67 in1004.7 mb - 0.00 in0.0 mm 0.00 in0.0 mm
06:00 PM 85.2°F29.6°C 62.7°F17.1°C 47% 9.2 mph SW14.8 kmh SW 20.7 mph33.3 kmh 29.67 in1004.7 mb - 0.00 in0.0 mm 0.00 in0.0 mm
06:10 PM 84.9°F29.4°C 62.4°F16.9°C 47% 15.0 mph SW24.1 kmh SW 29.9 mph48.1 kmh 29.67 in1004.7 mb - 0.00 in0.0 mm 0.00 in0.0 mm
06:20 PM 84.7°F29.3°C 62.2°F16.8°C 47% 10.4 mph SW16.7 kmh SW 19.6 mph31.5 kmh 29.66 in1004.4 mb - 0.00 in0.0 mm 0.00 in0.0 mm
06:30 PM 84.4°F29.1°C 62.0°F16.7°C 47% 11.5 mph SW18.5 kmh SW 20.7 mph33.3 kmh 29.65 in1004.1 mb - 0.00 in0.0 mm 0.00 in0.0 mm
06:40 PM 84.1°F28.9°C 61.7°F16.5°C 47% 13.8 mph SW22.2 kmh SW 26.5 mph42.6 kmh 29.66 in1004.4 mb - 0.00 in0.0 mm 0.00 in0.0 mm
06:50 PM 83.8°F28.8°C 60.2°F15.7°C 45% 12.7 mph SW20.4 kmh SW 19.6 mph31.5 kmh 29.65 in1004.1 mb - 0.00 in0.0 mm 0.00 in0.0 mm
07:00 PM 83.5°F28.6°C 59.9°F15.5°C 45% 10.4 mph SW16.7 kmh SW 15.0 mph24.1 kmh 29.66 in1004.4 mb - 0.00 in0.0 mm 0.00 in0.0 mm
07:10 PM 83.2°F28.4°C 59.6°F15.3°C 45% 6.9 mph SSW11.1 kmh SSW 13.8 mph22.2 kmh 29.66 in1004.4 mb - 0.00 in0.0 mm 0.00 in0.0 mm
07:20 PM 83.0°F28.3°C 58.8°F14.9°C 44% 10.4 mph SW16.7 kmh SW 18.4 mph29.6 kmh 29.66 in1004.4 mb - 0.00 in0.0 mm 0.00 in0.0 mm
07:30 PM 82.9°F28.3°C 58.7°F14.8°C 44% 9.2 mph SW14.8 kmh SW 24.2 mph38.9 kmh 29.67 in1004.7 mb - 0.00 in0.0 mm 0.00 in0.0 mm
07:40 PM 82.7°F28.2°C 59.2°F15.1°C 45% 10.4 mph SW16.7 kmh SW 16.1 mph25.9 kmh 29.67 in1004.7 mb - 0.00 in0.0 mm 0.00 in0.0 mm
07:50 PM 82.4°F28.0°C 59.6°F15.3°C 46% 9.2 mph SW14.8 kmh SW 16.1 mph25.9 kmh 29.68 in1005.1 mb - 0.00 in0.0 mm 0.00 in0.0 mm
08:00 PM 82.1°F27.8°C 58.7°F14.8°C 45% 11.5 mph SW18.5 kmh SW 20.7 mph33.3 kmh 29.68 in1005.1 mb - 0.00 in0.0 mm 0.00 in0.0 mm
08:10 PM 81.9°F27.7°C 59.1°F15.1°C 46% 5.8 mph SW9.3 kmh SW 10.4 mph16.7 kmh 29.68 in1005.1 mb - 0.00 in0.0 mm 0.00 in0.0 mm
08:20 PM 81.5°F27.5°C 59.3°F15.2°C 47% 6.9 mph SW11.1 kmh SW 11.5 mph18.5 kmh 29.68 in1005.1 mb - 0.00 in0.0 mm 0.00 in0.0 mm
08:30 PM 81.4°F27.4°C 58.6°F14.8°C 46% 8.1 mph SW13.0 kmh SW 11.5 mph18.5 kmh 29.68 in1005.1 mb - 0.00 in0.0 mm 0.00 in0.0 mm
08:40 PM 81.0°F27.2°C 58.9°F14.9°C 47% 8.1 mph SW13.0 kmh SW 13.8 mph22.2 kmh 29.68 in1005.1 mb - 0.00 in0.0 mm 0.00 in0.0 mm
08:50 PM 80.7°F27.1°C 58.6°F14.8°C 47% 5.8 mph SW9.3 kmh SW 11.5 mph18.5 kmh 29.68 in1005.1 mb - 0.00 in0.0 mm 0.00 in0.0 mm
09:00 PM 80.4°F26.9°C 58.9°F14.9°C 48% 6.9 mph SW11.1 kmh SW 12.7 mph20.4 kmh 29.69 in1005.4 mb - 0.00 in0.0 mm 0.00 in0.0 mm
09:10 PM 80.0°F26.7°C 59.1°F15.1°C 49% 4.6 mph W7.4 kmh W 6.9 mph11.1 kmh 29.71 in1006.1 mb - 0.00 in0.0 mm 0.00 in0.0 mm
09:20 PM 79.8°F26.6°C 59.0°F15.0°C 49% 5.8 mph WSW9.3 kmh WSW 9.2 mph14.8 kmh 29.71 in1006.1 mb - 0.00 in0.0 mm 0.00 in0.0 mm
09:30 PM 79.5°F26.4°C 59.2°F15.1°C 50% 4.6 mph W7.4 kmh W 5.8 mph9.3 kmh 29.72 in1006.4 mb - 0.00 in0.0 mm 0.00 in0.0 mm
09:40 PM 79.0°F26.1°C 58.8°F14.9°C 50% 3.5 mph W5.6 kmh W 5.8 mph9.3 kmh 29.72 in1006.4 mb - 0.00 in0.0 mm 0.00 in0.0 mm
09:50 PM 78.4°F25.8°C 58.8°F14.9°C 51% 4.6 mph NW7.4 kmh NW 5.8 mph9.3 kmh 29.73 in1006.8 mb - 0.00 in0.0 mm 0.00 in0.0 mm
10:00 PM 77.7°F25.4°C 57.6°F14.2°C 50% 5.8 mph NNW9.3 kmh NNW 10.4 mph16.7 kmh 29.75 in1007.5 mb - 0.00 in0.0 mm 0.00 in0.0 mm
10:10 PM 75.1°F23.9°C 56.8°F13.8°C 53% 4.6 mph NW7.4 kmh NW 9.2 mph14.8 kmh 29.76 in1007.8 mb - 0.00 in0.0 mm 0.00 in0.0 mm
10:20 PM 73.2°F22.9°C 56.6°F13.7°C 56% 2.3 mph NW3.7 kmh NW 5.8 mph9.3 kmh 29.76 in1007.8 mb - 0.00 in0.0 mm 0.00 in0.0 mm
10:30 PM 72.3°F22.4°C 56.7°F13.7°C 58% 2.3 mph NNW3.7 kmh NNW 3.5 mph5.6 kmh 29.77 in1008.1 mb - 0.00 in0.0 mm 0.00 in0.0 mm
10:40 PM 72.6°F22.6°C 57.0°F13.9°C 58% 3.5 mph NW5.6 kmh NW 5.8 mph9.3 kmh 29.77 in1008.1 mb - 0.00 in0.0 mm 0.00 in0.0 mm
10:50 PM 73.1°F22.8°C 57.0°F13.9°C 57% 3.5 mph NW5.6 kmh NW 4.6 mph7.4 kmh 29.78 in1008.5 mb - 0.00 in0.0 mm 0.00 in0.0 mm
11:00 PM 73.0°F22.8°C 56.9°F13.8°C 57% 2.3 mph NW3.7 kmh NW 5.8 mph9.3 kmh 29.78 in1008.5 mb - 0.00 in0.0 mm 0.00 in0.0 mm
11:10 PM 72.8°F22.7°C 56.7°F13.7°C 57% 1.2 mph NW1.9 kmh NW 2.3 mph3.7 kmh 29.78 in1008.5 mb - 0.00 in0.0 mm 0.00 in0.0 mm
11:20 PM 72.3°F22.4°C 57.2°F14.0°C 59% Calm Calm 1.2 mph1.9 kmh 29.78 in1008.5 mb - 0.00 in0.0 mm 0.00 in0.0 mm
11:30 PM 71.8°F22.1°C 56.7°F13.7°C 59% 1.2 mph NW1.9 kmh NW 3.5 mph5.6 kmh 29.78 in1008.5 mb - 0.00 in0.0 mm 0.00 in0.0 mm
11:40 PM 71.5°F21.9°C 56.4°F13.6°C 59% 3.5 mph WNW5.6 kmh WNW 5.8 mph9.3 kmh 29.78 in1008.5 mb - 0.00 in0.0 mm 0.00 in0.0 mm
11:50 PM 71.5°F21.9°C 56.4°F13.6°C 59% 2.3 mph WNW3.7 kmh WNW 3.5 mph5.6 kmh 29.78 in1008.5 mb - 0.00 in0.0 mm 0.00 in0.0 mm